Time;durP1;ratioP1;P1;durP2;ratioP2;P2;SDS_P1;SDS_P2;PMS_P1;PMS_P2;Temp;Humidity;BMP_temperature;BMP_pressure;BME280_temperature;BME280_humidity;BME280_pressure;Samples;Min_cycle;Max_cycle;Signal;HPM_P1;HPM_P2
2022/04/16 00:01:27;;;;;;;12.10;3.17;;;32.70;17.50;;;;;;5091774;28;20412;-63
2022/04/16 00:03:55;;;;;;;24.38;3.42;;;32.70;17.70;;;;;;5092454;28;20421;-62
2022/04/16 00:06:22;;;;;;;18.20;2.80;;;32.70;17.90;;;;;;5092269;28;20057;-64
2022/04/16 00:08:48;;;;;;;17.52;3.38;;;32.70;17.50;;;;;;5091582;28;20145;-63
2022/04/16 00:11:14;;;;;;;19.08;3.58;;;32.70;17.10;;;;;;5091151;28;20051;-63
2022/04/16 00:13:41;;;;;;;21.50;2.80;;;32.60;17.10;;;;;;5091002;28;20064;-64
2022/04/16 00:16:09;;;;;;;25.23;3.20;;;32.50;17.90;;;;;;5093210;28;20074;-63
2022/04/16 00:18:35;;;;;;;27.25;3.70;;;32.40;17.20;;;;;;5091284;28;20063;-62
2022/04/16 00:21:04;;;;;;;17.95;4.03;;;32.50;17.70;;;;;;5092048;28;20054;-62
2022/04/16 00:23:30;;;;;;;17.88;4.25;;;32.30;17.20;;;;;;5091776;28;20079;-62
2022/04/16 00:25:58;;;;;;;27.17;4.63;;;32.20;17.20;;;;;;5091623;28;20057;-62
2022/04/16 00:28:27;;;;;;;22.10;4.07;;;32.30;17.20;;;;;;5091030;28;20082;-62
2022/04/16 00:30:55;;;;;;;20.33;4.10;;;32.20;17.20;;;;;;5075677;28;20060;-62
2022/04/16 00:33:22;;;;;;;15.30;3.97;;;32.10;16.70;;;;;;5091837;28;20584;-62
2022/04/16 00:35:49;;;;;;;22.25;3.47;;;31.80;17.10;;;;;;5074803;28;20077;-64
2022/04/16 00:38:15;;;;;;;19.58;4.07;;;31.50;17.20;;;;;;5091134;28;20083;-63
2022/04/16 00:40:41;;;;;;;22.25;4.78;;;31.60;17.40;;;;;;5091500;28;20153;-63
2022/04/16 00:43:08;;;;;;;19.13;4.07;;;31.50;17.20;;;;;;5091113;28;20052;-63
2022/04/16 00:45:36;;;;;;;14.48;3.67;;;31.30;17.50;;;;;;5092233;28;20063;-62
2022/04/16 00:48:04;;;;;;;17.17;3.72;;;31.30;17.30;;;;;;5093271;28;20084;-62
2022/04/16 00:50:32;;;;;;;14.32;3.47;;;31.50;17.60;;;;;;5075411;28;20469;-62
2022/04/16 00:52:58;;;;;;;24.42;5.80;;;31.70;17.40;;;;;;5072571;28;20071;-62
2022/04/16 00:55:25;;;;;;;20.17;5.82;;;31.70;17.50;;;;;;5074915;28;20055;-63
2022/04/16 00:57:52;;;;;;;21.75;5.88;;;31.60;17.30;;;;;;5091122;28;20116;-62
2022/04/16 01:00:18;;;;;;;27.63;6.35;;;31.40;17.90;;;;;;5091892;28;20452;-61
2022/04/16 01:02:46;;;;;;;26.73;5.43;;;31.30;18.30;;;;;;5092515;28;20073;-61
2022/04/16 01:05:13;;;;;;;23.65;4.57;;;31.30;18.10;;;;;;5090233;28;20514;-62
2022/04/16 01:07:53;;;;;;;34.45;5.93;;;31.20;18.10;;;;;;5073782;28;20061;-63
2022/04/16 01:10:21;;;;;;;24.13;4.32;;;31.20;18.70;;;;;;5105078;28;20054;-62
2022/04/16 01:12:48;;;;;;;18.38;3.70;;;31.00;18.70;;;;;;5091363;28;20068;-62
2022/04/16 01:15:16;;;;;;;17.98;3.95;;;31.00;18.90;;;;;;5091058;28;20054;-63
2022/04/16 01:17:43;;;;;;;23.50;4.50;;;31.00;19.00;;;;;;5091988;28;20522;-63
2022/04/16 01:20:09;;;;;;;27.05;4.10;;;30.80;19.20;;;;;;5092950;28;20064;-64
2022/04/16 01:22:36;;;;;;;25.38;4.40;;;30.60;19.30;;;;;;5092007;28;20063;-64
2022/04/16 01:25:02;;;;;;;20.48;4.40;;;30.40;19.40;;;;;;5075074;28;20425;-62
2022/04/16 01:27:29;;;;;;;24.80;3.90;;;30.30;19.70;;;;;;5097639;28;20092;-62
2022/04/16 01:29:57;;;;;;;19.98;3.78;;;30.20;19.80;;;;;;5086162;28;20080;-64
2022/04/16 01:32:25;;;;;;;20.58;3.75;;;30.10;19.80;;;;;;5089947;28;20603;-65
2022/04/16 01:34:51;;;;;;;23.55;4.82;;;29.90;19.70;;;;;;5074025;22;20156;-60
2022/04/16 01:37:17;;;;;;;31.23;5.05;;;29.80;19.80;;;;;;5021745;28;20071;-63
2022/04/16 01:39:44;;;;;;;32.33;5.20;;;29.70;20.00;;;;;;5052363;28;20169;-59
2022/04/16 01:42:10;;;;;;;30.10;6.57;;;29.60;20.10;;;;;;5050144;28;20538;-62
2022/04/16 01:44:36;;;;;;;33.38;6.70;;;29.60;20.10;;;;;;5049844;28;20068;-62
2022/04/16 01:47:03;;;;;;;31.45;6.05;;;29.50;20.10;;;;;;5049941;28;20076;-60
2022/04/16 01:49:30;;;;;;;20.33;5.60;;;29.40;20.00;;;;;;5067174;28;20118;-60
2022/04/16 01:51:58;;;;;;;29.55;5.05;;;29.30;20.10;;;;;;5049978;28;20102;-61
2022/04/16 01:54:25;;;;;;;19.33;4.05;;;29.20;20.00;;;;;;5065209;28;21444;-60
2022/04/16 01:56:51;;;;;;;23.30;5.63;;;29.10;20.20;;;;;;5047909;28;20535;-60
2022/04/16 01:59:18;;;;;;;18.77;3.85;;;29.00;20.20;;;;;;5049220;28;20075;-60
2022/04/16 02:01:45;;;;;;;28.50;4.72;;;28.90;20.00;;;;;;5050228;28;20537;-61
2022/04/16 02:04:11;;;;;;;22.55;4.88;;;28.80;20.20;;;;;;5051588;28;20104;-63
2022/04/16 02:06:38;;;;;;;22.33;4.28;;;28.70;20.10;;;;;;5067021;28;20437;-61
2022/04/16 02:09:04;;;;;;;25.45;4.57;;;28.70;20.10;;;;;;5052716;28;20442;-61
2022/04/16 02:11:30;;;;;;;23.77;4.80;;;28.50;20.20;;;;;;5050206;28;20072;-62
2022/04/16 02:13:57;;;;;;;27.55;4.07;;;28.40;20.20;;;;;;5060067;28;20080;-61
2022/04/16 02:16:27;;;;;;;29.48;4.97;;;28.30;20.40;;;;;;5086734;28;20092;-59
2022/04/16 02:18:53;;;;;;;29.13;4.78;;;28.20;20.60;;;;;;5052554;28;20444;-61
2022/04/16 02:21:20;;;;;;;30.30;4.85;;;28.10;20.60;;;;;;5053462;28;20074;-61
2022/04/16 02:23:51;;;;;;;37.22;4.60;;;28.00;20.80;;;;;;5037389;28;20080;-61
2022/04/16 02:26:21;;;;;;;18.30;3.42;;;28.00;20.90;;;;;;5074991;28;20066;-61
2022/04/16 02:28:50;;;;;;;18.58;4.10;;;27.90;20.90;;;;;;5052753;28;20416;-62
2022/04/16 02:31:17;;;;;;;35.65;4.07;;;27.80;21.20;;;;;;5070710;28;20067;-62
2022/04/16 02:33:43;;;;;;;37.85;4.40;;;27.70;21.00;;;;;;5053403;28;20107;-62
2022/04/16 02:36:11;;;;;;;28.50;4.53;;;27.70;21.10;;;;;;5053668;28;20078;-62
2022/04/16 02:38:42;;;;;;;46.95;4.75;;;27.60;21.40;;;;;;5053926;28;20069;-62
2022/04/16 02:41:08;;;;;;;32.63;4.68;;;27.50;21.40;;;;;;5053600;28;20073;-61
2022/04/16 02:43:35;;;;;;;28.10;5.10;;;27.40;21.40;;;;;;5069571;28;20072;-60
2022/04/16 02:48:46;;;;;;;28.58;5.00;;;27.30;21.50;;;;;;5071207;28;20099;-59
2022/04/16 02:51:13;;;;;;;24.85;3.92;;;27.10;21.50;;;;;;5068167;28;20163;-60
2022/04/16 02:53:39;;;;;;;64.45;5.20;;;27.00;21.60;;;;;;5069510;28;20119;-60
2022/04/16 02:56:06;;;;;;;33.95;5.05;;;26.90;21.90;;;;;;5086245;28;20073;-61
2022/04/16 02:58:32;;;;;;;29.77;4.10;;;26.90;21.50;;;;;;5070820;28;20091;-61
2022/04/16 03:00:58;;;;;;;34.70;5.70;;;26.90;21.60;;;;;;5070390;28;20118;-61
2022/04/16 03:03:25;;;;;;;23.15;5.38;;;26.80;21.50;;;;;;5086237;28;20107;-61
2022/04/16 03:05:51;;;;;;;36.47;5.53;;;26.80;21.70;;;;;;5086182;28;20733;-62
2022/04/16 03:08:18;;;;;;;27.67;5.38;;;26.70;21.70;;;;;;5076273;28;20075;-61
2022/04/16 03:10:44;;;;;;;32.03;5.75;;;26.70;22.10;;;;;;5081882;28;20072;-60
2022/04/16 03:13:12;;;;;;;32.13;6.07;;;26.60;22.20;;;;;;5085799;28;20088;-61
2022/04/16 03:18:22;;;;;;;32.90;5.75;;;26.50;22.40;;;;;;5071081;28;20074;-61
2022/04/16 03:20:49;;;;;;;27.38;5.68;;;26.50;22.90;;;;;;5085999;28;20068;-61
2022/04/16 03:23:15;;;;;;;31.63;5.85;;;26.40;23.30;;;;;;5086034;28;20130;-61
2022/04/16 03:25:43;;;;;;;24.50;5.78;;;26.30;23.20;;;;;;5090793;28;20071;-61
2022/04/16 03:28:11;;;;;;;30.25;5.88;;;26.20;23.50;;;;;;5052281;28;20071;-61
2022/04/16 03:30:38;;;;;;;26.30;5.60;;;26.00;23.50;;;;;;5068417;28;20076;-62
2022/04/16 03:33:05;;;;;;;34.53;6.15;;;25.90;23.50;;;;;;5069869;28;20088;-62
2022/04/16 03:35:31;;;;;;;43.38;6.88;;;25.80;23.90;;;;;;5085638;28;20204;-63
2022/04/16 03:37:58;;;;;;;38.80;7.47;;;25.70;24.00;;;;;;5052573;28;20064;-61
2022/04/16 03:40:26;;;;;;;38.90;6.05;;;25.60;24.20;;;;;;5085910;28;20142;-62
2022/04/16 03:43:02;;;;;;;30.25;5.60;;;25.50;24.50;;;;;;5068930;28;20192;-62
2022/04/16 03:45:34;;;;;;;26.55;6.07;;;25.50;25.00;;;;;;5051096;28;20062;-63
2022/04/16 03:48:03;;;;;;;31.50;5.95;;;25.40;25.10;;;;;;5067609;28;20410;-62
2022/04/16 03:50:31;;;;;;;27.80;5.13;;;25.30;25.20;;;;;;5068661;28;20155;-62
2022/04/16 03:52:58;;;;;;;26.02;4.82;;;25.30;25.90;;;;;;5085277;28;20093;-62
2022/04/16 04:01:01;;;;;;;18.70;4.70;;;25.00;25.60;;;;;;5070264;28;20444;-61
2022/04/16 04:03:28;;;;;;;21.17;4.15;;;24.90;25.70;;;;;;5035561;28;20075;-62
2022/04/16 04:05:56;;;;;;;24.42;4.55;;;24.90;26.40;;;;;;5085341;28;20184;-62
2022/04/16 04:08:23;;;;;;;16.83;4.40;;;24.80;26.20;;;;;;5072138;28;20064;-63
2022/04/16 04:10:49;;;;;;;25.40;4.90;;;24.70;26.60;;;;;;5074616;28;20536;-63
2022/04/16 04:13:17;;;;;;;17.80;4.90;;;24.70;26.70;;;;;;5072117;28;20109;-62
2022/04/16 04:15:44;;;;;;;19.67;4.93;;;24.60;26.90;;;;;;5097634;28;20087;-61
2022/04/16 04:18:11;;;;;;;24.38;4.63;;;24.50;26.90;;;;;;5063153;28;20600;-62
2022/04/16 04:20:37;;;;;;;22.65;4.35;;;24.50;27.10;;;;;;5075585;28;20087;-63
2022/04/16 04:23:04;;;;;;;15.43;4.55;;;24.40;27.30;;;;;;5085262;28;21311;-61
2022/04/16 04:25:32;;;;;;;27.88;4.78;;;24.40;27.20;;;;;;5068601;28;20093;-62
2022/04/16 04:27:58;;;;;;;24.20;4.55;;;24.30;27.60;;;;;;5085117;28;20094;-61
2022/04/16 04:30:24;;;;;;;31.42;5.15;;;24.30;27.80;;;;;;5051715;28;20079;-61
2022/04/16 04:32:51;;;;;;;17.92;4.10;;;24.30;27.80;;;;;;5081411;28;20083;-62
2022/04/16 04:35:17;;;;;;;14.38;3.53;;;24.20;27.80;;;;;;5077788;28;20107;-61
2022/04/16 04:37:45;;;;;;;22.65;3.65;;;24.20;28.10;;;;;;5069398;28;20078;-61
2022/04/16 04:40:12;;;;;;;10.70;3.35;;;24.20;28.40;;;;;;5054700;28;20079;-63
2022/04/16 04:42:38;;;;;;;59.20;5.57;;;24.30;28.60;;;;;;5057315;28;20074;-62
2022/04/16 04:45:13;;;;;;;29.20;4.15;;;24.20;28.90;;;;;;5090763;28;20092;-62
2022/04/16 04:47:40;;;;;;;60.72;5.97;;;24.20;29.10;;;;;;5070069;28;20067;-64
2022/04/16 04:50:07;;;;;;;154.18;10.82;;;24.20;29.60;;;;;;5088020;28;20079;-65
2022/04/16 04:52:36;;;;;;;33.65;5.30;;;24.20;29.80;;;;;;5058236;28;20080;-60
2022/04/16 04:55:06;;;;;;;18.48;4.15;;;24.10;29.90;;;;;;5054485;28;20087;-59
2022/04/16 04:57:32;;;;;;;12.23;3.45;;;24.10;29.90;;;;;;5072399;28;20080;-60
2022/04/16 04:59:59;;;;;;;14.23;3.28;;;24.10;30.00;;;;;;5037402;28;20091;-59
2022/04/16 05:02:36;;;;;;;17.80;3.85;;;24.00;30.00;;;;;;5087638;28;20083;-60
2022/04/16 05:05:03;;;;;;;22.02;3.75;;;24.00;30.30;;;;;;5088349;28;20088;-59
2022/04/16 05:07:29;;;;;;;15.07;4.05;;;23.90;30.50;;;;;;5072332;28;20126;-60
2022/04/16 05:09:55;;;;;;;18.58;3.53;;;23.90;30.70;;;;;;5090733;28;20082;-61
2022/04/16 05:12:22;;;;;;;18.83;3.80;;;23.90;30.80;;;;;;5074120;28;20098;-61
2022/04/16 05:14:48;;;;;;;15.00;3.45;;;23.80;31.00;;;;;;5086892;28;20129;-59
2022/04/16 05:17:14;;;;;;;14.90;3.13;;;23.80;31.20;;;;;;5069948;28;20526;-59
2022/04/16 05:19:41;;;;;;;17.38;3.13;;;23.70;31.60;;;;;;5070961;28;20429;-58
2022/04/16 05:22:07;;;;;;;11.07;2.90;;;23.60;32.10;;;;;;5071421;28;20088;-59
2022/04/16 05:24:33;;;;;;;15.50;3.15;;;23.60;32.20;;;;;;5071790;28;20082;-59
2022/04/16 05:27:00;;;;;;;13.45;3.35;;;23.50;32.20;;;;;;5086540;28;20072;-61
2022/04/16 05:29:32;;;;;;;12.45;2.88;;;23.50;32.20;;;;;;5094031;28;20075;-60
2022/04/16 05:31:58;;;;;;;18.08;3.88;;;23.50;32.20;;;;;;5074370;28;20169;-59
2022/04/16 05:34:24;;;;;;;12.30;2.97;;;23.40;32.10;;;;;;5071295;28;20107;-59
2022/04/16 05:36:51;;;;;;;18.60;3.95;;;23.40;32.10;;;;;;5074146;28;20087;-59
2022/04/16 05:39:18;;;;;;;17.98;3.60;;;23.30;32.10;;;;;;5053633;28;20169;-58
2022/04/16 05:41:45;;;;;;;17.02;3.70;;;23.30;32.20;;;;;;5071636;28;20070;-61
2022/04/16 05:44:11;;;;;;;15.38;3.42;;;23.30;32.40;;;;;;5086875;28;20082;-62
2022/04/16 05:46:38;;;;;;;14.75;3.60;;;23.30;32.50;;;;;;5086824;28;20076;-61
2022/04/16 05:49:04;;;;;;;17.58;3.20;;;23.20;32.50;;;;;;5072174;28;21043;-59
2022/04/16 05:51:31;;;;;;;20.90;3.88;;;23.10;32.60;;;;;;5053420;28;20083;-60
2022/04/16 05:54:00;;;;;;;10.75;3.22;;;23.10;32.70;;;;;;5086730;28;20072;-61
2022/04/16 05:56:28;;;;;;;11.25;3.47;;;23.00;32.80;;;;;;5053325;28;20103;-60
2022/04/16 05:58:55;;;;;;;12.70;3.20;;;23.00;33.10;;;;;;5053498;28;20068;-59
2022/04/16 06:01:22;;;;;;;10.27;3.38;;;22.90;33.20;;;;;;5052807;28;20064;-57
2022/04/16 06:03:48;;;;;;;16.48;3.40;;;22.80;33.10;;;;;;5086617;28;20517;-59
2022/04/16 06:06:14;;;;;;;31.02;4.18;;;22.80;32.80;;;;;;5069300;28;20577;-61
2022/04/16 06:08:41;;;;;;;14.05;3.42;;;22.80;32.60;;;;;;5084603;28;20511;-60
2022/04/16 06:11:08;;;;;;;18.52;4.35;;;22.80;32.30;;;;;;5072589;28;20102;-61
2022/04/16 06:13:35;;;;;;;20.70;3.60;;;22.80;32.20;;;;;;5059180;28;20199;-58
2022/04/16 06:16:02;;;;;;;13.07;2.67;;;22.80;32.00;;;;;;5070549;28;20155;-61
2022/04/16 06:18:28;;;;;;;13.60;3.38;;;22.80;32.00;;;;;;5052658;28;20068;-60
2022/04/16 06:20:57;;;;;;;6.60;2.55;;;22.70;32.30;;;;;;5077635;28;20069;-61
2022/04/16 06:23:24;;;;;;;17.48;7.22;;;22.60;32.70;;;;;;5079922;28;20075;-60
2022/04/16 06:25:50;;;;;;;14.07;3.35;;;22.60;33.00;;;;;;5074942;28;20071;-60
2022/04/16 06:28:17;;;;;;;20.05;4.00;;;22.50;33.30;;;;;;5074177;28;20068;-61
2022/04/16 06:30:43;;;;;;;18.02;3.67;;;22.50;33.90;;;;;;5077105;28;20436;-62
2022/04/16 06:33:09;;;;;;;15.52;3.20;;;22.30;34.30;;;;;;5074027;28;20109;-61
2022/04/16 06:35:36;;;;;;;17.23;2.95;;;22.20;34.60;;;;;;5088858;28;20071;-61
2022/04/16 06:38:02;;;;;;;11.77;2.85;;;22.10;34.90;;;;;;5086634;28;20078;-61
2022/04/16 06:40:29;;;;;;;13.32;2.60;;;22.00;34.80;;;;;;5074302;28;20100;-61
2022/04/16 06:42:55;;;;;;;8.85;2.45;;;22.00;34.80;;;;;;5072184;28;20072;-60
2022/04/16 06:45:22;;;;;;;11.20;2.72;;;22.00;34.60;;;;;;5074949;28;20150;-59
2022/04/16 06:47:48;;;;;;;12.85;2.78;;;21.90;34.50;;;;;;5073397;28;20498;-60
2022/04/16 06:50:14;;;;;;;9.93;2.78;;;21.90;34.60;;;;;;5068392;28;20102;-60
2022/04/16 06:52:41;;;;;;;14.32;2.72;;;21.90;34.60;;;;;;5070310;28;20091;-58
2022/04/16 06:55:07;;;;;;;11.00;2.78;;;21.90;34.60;;;;;;5075315;28;20602;-61
2022/04/16 06:57:34;;;;;;;9.23;3.58;;;21.80;34.20;;;;;;5068090;28;20079;-60
2022/04/16 07:00:00;;;;;;;14.77;3.42;;;21.80;34.10;;;;;;5086266;28;20548;-60
2022/04/16 07:02:27;;;;;;;13.30;3.65;;;21.80;34.10;;;;;;5057811;28;20091;-60
2022/04/16 07:04:54;;;;;;;15.98;4.00;;;21.80;34.10;;;;;;5056035;28;20072;-60
2022/04/16 07:07:20;;;;;;;10.40;3.70;;;21.80;34.00;;;;;;5087871;28;20088;-60
2022/04/16 07:09:47;;;;;;;11.98;3.38;;;21.80;34.10;;;;;;5057179;28;20078;-61
2022/04/16 07:12:14;;;;;;;12.45;2.90;;;21.80;34.20;;;;;;5074457;28;20554;-61
2022/04/16 07:14:40;;;;;;;12.73;2.90;;;21.70;34.20;;;;;;5086950;28;20554;-61
2022/04/16 07:17:07;;;;;;;13.73;2.95;;;21.70;34.20;;;;;;5070259;28;20091;-61
2022/04/16 07:19:35;;;;;;;12.65;2.60;;;21.70;34.10;;;;;;5068133;28;20594;-61
2022/04/16 07:22:02;;;;;;;16.17;7.18;;;21.70;34.10;;;;;;5067774;28;20088;-63
2022/04/16 07:24:28;;;;;;;10.68;2.88;;;21.70;34.10;;;;;;5072828;28;20110;-60
2022/04/16 07:26:55;;;;;;;9.57;2.80;;;21.70;33.90;;;;;;5070191;28;20091;-62
2022/04/16 07:29:22;;;;;;;10.68;2.50;;;21.70;33.90;;;;;;5089453;28;20182;-60
2022/04/16 07:31:49;;;;;;;11.68;3.15;;;21.70;33.90;;;;;;5056527;28;20084;-61
2022/04/16 07:34:16;;;;;;;14.95;5.93;;;21.70;34.00;;;;;;5050426;28;20507;-60
2022/04/16 07:36:43;;;;;;;14.50;4.80;;;21.60;33.80;;;;;;5087842;28;20067;-62
2022/04/16 07:39:11;;;;;;;9.43;3.53;;;21.60;33.60;;;;;;5051672;28;20076;-60
2022/04/16 07:41:38;;;;;;;13.90;6.13;;;21.60;33.70;;;;;;5075929;28;20080;-62
2022/04/16 07:44:05;;;;;;;14.27;3.75;;;21.60;33.90;;;;;;5072069;28;20071;-61
2022/04/16 07:46:32;;;;;;;10.82;3.30;;;21.60;33.80;;;;;;5071493;28;20071;-61
2022/04/16 07:48:59;;;;;;;10.50;3.05;;;21.60;33.90;;;;;;5054029;28;20084;-61
2022/04/16 07:51:27;;;;;;;10.32;2.85;;;21.60;34.70;;;;;;5074790;28;20068;-60
2022/04/16 07:53:57;;;;;;;9.80;2.75;;;21.60;34.50;;;;;;5051432;28;20079;-62
2022/04/16 07:56:24;;;;;;;8.65;2.67;;;21.60;34.60;;;;;;5087301;28;20154;-61
2022/04/16 07:58:51;;;;;;;12.82;2.83;;;21.60;35.00;;;;;;5051540;28;20658;-59
2022/04/16 08:01:18;;;;;;;10.57;3.08;;;21.50;34.80;;;;;;5070266;28;20076;-60
2022/04/16 08:03:44;;;;;;;13.75;2.70;;;21.50;35.00;;;;;;5070007;28;20072;-60
2022/04/16 08:06:11;;;;;;;15.35;3.40;;;21.40;35.40;;;;;;5073726;28;21004;-60
2022/04/16 08:08:38;;;;;;;12.23;2.55;;;21.30;36.40;;;;;;5072128;28;20076;-61
2022/04/16 08:11:04;;;;;;;16.33;3.05;;;21.30;36.20;;;;;;5088401;28;20079;-63
2022/04/16 08:13:31;;;;;;;13.52;3.15;;;21.20;36.40;;;;;;5051047;28;20793;-61
2022/04/16 08:15:58;;;;;;;12.13;3.03;;;21.20;36.70;;;;;;5074599;28;20072;-62
2022/04/16 08:18:24;;;;;;;10.32;2.80;;;21.10;36.60;;;;;;5075863;28;20106;-63
2022/04/16 08:20:50;;;;;;;9.77;2.97;;;21.00;36.90;;;;;;5076551;28;20071;-61
2022/04/16 08:23:17;;;;;;;13.85;3.00;;;20.90;37.40;;;;;;5073833;28;20111;-60
2022/04/16 08:25:43;;;;;;;12.88;2.53;;;20.80;37.80;;;;;;5076069;28;20079;-60
2022/04/16 08:28:10;;;;;;;13.07;2.97;;;20.70;38.10;;;;;;5091269;28;20073;-62
2022/04/16 08:30:36;;;;;;;13.57;3.10;;;20.70;38.10;;;;;;5037550;28;20087;-60
2022/04/16 08:33:03;;;;;;;16.70;3.22;;;20.70;38.90;;;;;;5089395;28;20149;-60
2022/04/16 08:35:29;;;;;;;17.38;2.80;;;20.60;39.30;;;;;;5076601;28;20548;-61
2022/04/16 08:37:56;;;;;;;20.77;3.42;;;20.60;39.60;;;;;;5057997;28;20076;-60
2022/04/16 08:40:23;;;;;;;12.65;3.30;;;20.50;39.30;;;;;;5056668;28;20068;-61
2022/04/16 08:42:49;;;;;;;15.23;3.10;;;20.40;39.50;;;;;;5056111;28;20073;-62
2022/04/16 08:45:16;;;;;;;19.58;3.30;;;20.40;40.20;;;;;;5087911;28;20122;-59
2022/04/16 08:47:44;;;;;;;16.13;3.10;;;20.30;40.20;;;;;;5070642;28;20095;-61
2022/04/16 08:50:13;;;;;;;14.68;3.40;;;20.20;39.90;;;;;;5092348;28;20103;-62
2022/04/16 08:52:40;;;;;;;12.88;3.40;;;20.10;40.20;;;;;;5056843;28;20598;-60
2022/04/16 08:55:10;;;;;;;18.50;3.65;;;20.10;40.20;;;;;;5072362;28;20095;-60
2022/04/16 08:57:38;;;;;;;13.38;3.22;;;20.10;40.80;;;;;;5070857;28;20456;-60
2022/04/16 09:00:06;;;;;;;13.38;3.30;;;20.10;40.80;;;;;;5078018;28;20076;-60
2022/04/16 09:02:32;;;;;;;13.07;3.20;;;20.00;41.20;;;;;;5075496;28;20096;-58
2022/04/16 09:05:06;;;;;;;15.80;3.40;;;20.00;41.00;;;;;;5089189;28;20166;-61
2022/04/16 09:07:44;;;;;;;15.75;3.10;;;20.00;41.00;;;;;;5053359;28;20084;-59
2022/04/16 09:10:11;;;;;;;11.43;2.70;;;19.90;40.80;;;;;;5073274;28;20083;-60
2022/04/16 09:12:39;;;;;;;20.38;2.85;;;19.90;40.40;;;;;;5070701;28;20457;-59
2022/04/16 09:15:10;;;;;;;6.40;2.25;;;19.90;39.30;;;;;;5073693;28;20072;-60
2022/04/16 09:17:38;;;;;;;14.30;2.75;;;19.90;39.10;;;;;;5056504;28;20098;-62
2022/04/16 09:20:12;;;;;;;10.30;2.00;;;19.90;38.70;;;;;;5074533;28;20075;-59
2022/04/16 09:22:40;;;;;;;6.22;1.67;;;19.90;36.90;;;;;;5073224;28;20440;-60
2022/04/16 09:25:18;;;;;;;8.55;1.70;;;20.10;35.90;;;;;;5072461;28;20107;-62
2022/04/16 09:27:54;;;;;;;8.23;1.70;;;20.20;35.70;;;;;;5089117;28;20078;-61
2022/04/16 09:30:30;;;;;;;9.27;1.73;;;20.30;34.80;;;;;;5056153;28;20163;-60
2022/04/16 09:32:58;;;;;;;11.23;1.80;;;20.40;34.80;;;;;;5057311;28;20091;-59
2022/04/16 09:35:38;;;;;;;6.60;1.73;;;20.40;34.30;;;;;;5089601;28;20095;-59
2022/04/16 09:38:08;;;;;;;6.82;1.70;;;20.50;33.20;;;;;;5092474;28;20121;-61
2022/04/16 09:40:36;;;;;;;8.65;1.50;;;20.60;32.90;;;;;;5071784;28;20088;-61
2022/04/16 09:43:06;;;;;;;11.45;1.80;;;20.70;32.50;;;;;;5075549;28;20561;-60
2022/04/16 09:45:33;;;;;;;9.05;1.85;;;20.90;32.20;;;;;;5073831;28;20444;-60
2022/04/16 09:48:00;;;;;;;14.00;1.90;;;20.90;32.60;;;;;;5071796;28;20137;-60
2022/04/16 09:50:32;;;;;;;5.05;1.88;;;21.00;32.70;;;;;;5041101;28;20083;-57
2022/04/16 09:53:02;;;;;;;7.85;1.85;;;21.00;32.90;;;;;;5089223;28;20123;-62
2022/04/16 09:55:29;;;;;;;7.97;1.88;;;21.10;33.50;;;;;;5059288;28;20094;-60
2022/04/16 09:58:03;;;;;;;11.75;2.35;;;21.00;33.90;;;;;;5052684;28;20064;-59
2022/04/16 10:00:34;;;;;;;14.82;3.60;;;21.00;34.50;;;;;;5087522;28;20075;-62
2022/04/16 10:03:00;;;;;;;7.75;2.47;;;21.00;35.20;;;;;;5054338;28;20112;-60
2022/04/16 10:05:27;;;;;;;12.55;2.58;;;21.00;35.50;;;;;;5092219;28;20072;-59
2022/04/16 10:07:53;;;;;;;10.30;1.80;;;21.00;35.70;;;;;;5073323;28;20076;-61
2022/04/16 10:10:41;;;;;;;12.80;2.15;;;20.90;35.80;;;;;;5085405;28;20069;-58
2022/04/16 10:13:11;;;;;;;13.68;3.15;;;20.80;36.20;;;;;;5089981;28;20119;-60
2022/04/16 10:16:05;;;;;;;12.48;2.10;;;20.80;36.50;;;;;;5068659;28;20080;-59
2022/04/16 10:18:35;;;;;;;12.02;2.63;;;20.70;37.30;;;;;;5072310;28;20072;-60
2022/04/16 10:21:03;;;;;;;17.40;2.35;;;20.70;38.10;;;;;;5073559;28;20070;-62
2022/04/16 10:23:47;;;;;;;14.10;2.38;;;20.70;38.30;;;;;;5059170;28;20098;-61
2022/04/16 10:26:17;;;;;;;12.57;2.50;;;20.60;38.50;;;;;;5089133;28;20080;-60
2022/04/16 10:28:52;;;;;;;12.40;2.42;;;20.50;38.70;;;;;;5091007;28;20443;-59
2022/04/16 10:31:20;;;;;;;10.60;2.97;;;20.40;38.80;;;;;;5067556;28;20074;-59
2022/04/16 10:34:05;;;;;;;18.65;3.47;;;20.40;38.90;;;;;;5088940;28;20194;-59
2022/04/16 10:36:37;;;;;;;13.18;2.80;;;20.40;39.20;;;;;;5071405;28;20072;-60
2022/04/16 10:39:18;;;;;;;17.08;3.10;;;20.40;39.10;;;;;;5050762;28;20090;-59
2022/04/16 10:41:58;;;;;;;19.77;4.05;;;20.30;38.60;;;;;;5070088;28;20113;-59
2022/04/16 10:44:26;;;;;;;9.48;3.00;;;20.30;38.40;;;;;;5071078;28;20072;-60
2022/04/16 10:46:54;;;;;;;9.68;2.72;;;20.30;38.60;;;;;;5091301;28;20079;-62
2022/04/16 10:49:25;;;;;;;25.40;3.03;;;20.30;38.70;;;;;;5088523;28;20551;-59
2022/04/16 10:51:58;;;;;;;11.40;2.53;;;20.30;38.60;;;;;;5071574;28;20080;-59
2022/04/16 10:54:34;;;;;;;16.70;3.47;;;20.30;38.80;;;;;;5072321;28;20088;-59
2022/04/16 10:57:02;;;;;;;14.25;3.17;;;20.30;39.20;;;;;;5072773;28;20075;-60
2022/04/16 11:00:10;;;;;;;11.93;3.88;;;20.30;39.20;;;;;;5071801;28;20163;-59
2022/04/16 11:02:36;;;;;;;25.92;6.70;;;20.20;39.40;;;;;;5055494;28;20103;-60
2022/04/16 11:05:09;;;;;;;23.73;6.43;;;20.10;38.90;;;;;;5069589;28;20107;-60
2022/04/16 11:07:40;;;;;;;28.15;6.35;;;20.00;38.90;;;;;;5087444;28;20068;-60
2022/04/16 11:10:11;;;;;;;21.13;6.43;;;19.90;39.50;;;;;;5067724;28;20533;-60
2022/04/16 11:12:39;;;;;;;27.83;7.60;;;19.90;40.30;;;;;;5067628;28;20552;-60
2022/04/16 11:15:26;;;;;;;21.02;6.93;;;19.90;40.20;;;;;;5072824;28;20456;-60
2022/04/16 11:17:56;;;;;;;;;;;19.80;39.40;;;;;;5071403;28;20071;-60
2022/04/16 11:20:23;;;;;;;17.55;5.63;;;19.70;40.30;;;;;;5071944;28;19963;-60
2022/04/16 11:22:49;;;;;;;24.48;5.75;;;19.60;40.40;;;;;;5069719;28;20170;-59
2022/04/16 11:25:16;;;;;;;16.67;4.82;;;19.60;40.50;;;;;;5053412;28;20411;-59
2022/04/16 11:36:05;;;;;;;33.10;9.23;;;19.40;40.60;;;;;;5070511;28;20450;-59
2022/04/16 11:38:42;;;;;;;38.83;10.23;;;19.30;40.70;;;;;;5070517;28;20483;-59
2022/04/16 11:41:12;;;;;;;37.67;10.85;;;19.20;41.60;;;;;;5054321;28;20075;-60
2022/04/16 11:43:51;;;;;;;38.47;10.60;;;19.10;41.40;;;;;;5054805;28;20179;-61
2022/04/16 11:46:18;;;;;;;32.90;9.98;;;19.00;41.40;;;;;;5073009;28;20076;-62
2022/04/16 11:48:46;;;;;;;36.95;9.90;;;18.90;41.60;;;;;;5090630;28;20441;-61
2022/04/16 11:51:18;;;;;;;37.38;9.48;;;18.80;42.10;;;;;;5072678;28;20085;-60
2022/04/16 11:53:45;;;;;;;38.60;9.35;;;18.80;42.50;;;;;;5092493;28;20090;-59
2022/04/16 11:56:12;;;;;;;31.65;9.40;;;18.70;42.10;;;;;;5078812;28;20074;-59
2022/04/16 11:58:38;;;;;;;43.15;10.65;;;18.60;42.30;;;;;;5075079;28;20527;-60
2022/04/16 12:01:05;;;;;;;;;;;18.60;43.00;;;;;;5090066;28;20499;-61
2022/04/16 12:03:39;;;;;;;50.75;11.23;;;18.50;42.80;;;;;;5077479;28;19955;-60
2022/04/16 12:06:13;;;;;;;54.55;12.57;;;18.50;43.60;;;;;;5073938;28;20542;-60
2022/04/16 12:08:48;;;;;;;49.33;11.38;;;18.40;43.50;;;;;;5076533;28;20080;-60
2022/04/16 12:11:19;;;;;;;42.75;11.95;;;18.40;43.50;;;;;;5039637;28;20077;-60
2022/04/16 12:13:49;;;;;;;39.65;11.07;;;18.30;43.90;;;;;;5054395;28;20119;-60
2022/04/16 12:16:16;;;;;;;50.38;10.95;;;18.00;44.10;;;;;;5077103;28;20122;-62
2022/04/16 12:18:43;;;;;;;;;;;18.00;45.00;;;;;;5091400;28;20068;-60
2022/04/16 12:21:11;;;;;;;53.42;11.35;;;17.90;45.10;;;;;;5073758;28;19986;-58
2022/04/16 12:23:38;;;;;;;45.78;11.10;;;17.90;45.10;;;;;;5075161;28;20076;-60
2022/04/16 12:26:06;;;;;;;48.35;12.07;;;18.00;44.90;;;;;;5071844;28;20563;-60
2022/04/16 12:28:35;;;;;;;42.90;11.32;;;17.90;45.80;;;;;;5077298;28;20112;-60
2022/04/16 12:31:03;;;;;;;55.75;11.85;;;17.90;46.00;;;;;;5037529;28;20530;-60
2022/04/16 12:33:29;;;;;;;44.30;11.00;;;17.90;45.90;;;;;;5077257;28;20111;-59
2022/04/16 12:35:58;;;;;;;;;;;17.80;45.50;;;;;;5054871;28;20581;-59
2022/04/16 12:38:25;;;;;;;48.83;11.13;;;17.60;45.90;;;;;;5075127;28;19956;-59
2022/04/16 12:41:12;;;;;;;37.65;11.00;;;17.70;46.50;;;;;;5055758;28;20176;-60
2022/04/16 12:43:40;;;;;;;48.67;11.20;;;17.70;47.10;;;;;;5075594;28;20089;-59
2022/04/16 12:46:07;;;;;;;34.35;9.85;;;17.60;47.00;;;;;;5075186;28;20072;-60
2022/04/16 12:48:33;;;;;;;42.20;10.20;;;17.60;47.10;;;;;;5075042;28;20081;-60
2022/04/16 12:51:01;;;;;;;48.05;10.93;;;17.60;47.50;;;;;;5073802;28;20561;-59
2022/04/16 12:53:27;;;;;;;32.83;9.57;;;17.60;47.40;;;;;;5074061;28;20092;-61
2022/04/16 12:55:53;;;;;;;;;;;17.70;47.30;;;;;;5092885;28;20080;-59
2022/04/16 12:58:20;;;;;;;36.55;10.40;;;17.60;47.60;;;;;;5074440;28;19978;-61
2022/04/16 13:00:47;;;;;;;40.92;9.35;;;17.60;48.10;;;;;;5088501;28;20069;-60
2022/04/16 13:03:14;;;;;;;43.85;9.30;;;17.60;48.40;;;;;;5076260;28;20106;-60